Time;durP1;ratioP1;P1;durP2;ratioP2;P2;SDS_P1;SDS_P2;PMS_P1;PMS_P2;Temp;Humidity;BMP_temperature;BMP_pressure;BME280_temperature;BME280_humidity;BME280_pressure;Samples;Min_cycle;Max_cycle;Signal;HPM_P1;HPM_P2
2022/08/12 00:44:53;;;;;;;2.15;1.95;;;17.90;99.90;;;;;;5007891;28;20021;-57
2022/08/12 00:47:20;;;;;;;2.88;1.67;;;17.90;99.90;;;;;;4999014;28;20072;-56
2022/08/12 00:49:48;;;;;;;3.53;1.90;;;17.90;99.90;;;;;;4999595;28;20095;-56
2022/08/12 00:52:14;;;;;;;5.50;2.10;;;17.90;99.90;;;;;;4996296;28;20109;-55
2022/08/12 00:54:58;;;;;;;4.03;2.00;;;17.80;99.90;;;;;;5006668;28;20057;-57
2022/08/12 00:57:29;;;;;;;2.25;1.40;;;17.80;99.90;;;;;;4998401;28;20405;-57
2022/08/12 01:00:10;;;;;;;1.50;1.40;;;17.80;99.90;;;;;;5018866;28;20049;-57
2022/08/12 01:02:44;;;;;;;4.60;2.10;;;17.80;99.90;;;;;;4999046;28;20029;-58
2022/08/12 01:13:31;;;;;;;1.83;1.52;;;17.70;99.90;;;;;;5007677;28;20037;-56
2022/08/12 01:16:00;;;;;;;2.97;1.83;;;17.70;99.90;;;;;;5007912;28;20036;-57
2022/08/12 01:18:29;;;;;;;2.10;1.73;;;17.60;99.90;;;;;;5007777;28;20171;-57
2022/08/12 01:21:27;;;;;;;2.13;1.42;;;17.60;99.90;;;;;;5007693;28;20125;-57
2022/08/12 01:24:30;;;;;;;2.13;1.60;;;17.60;99.90;;;;;;5005758;28;20030;-57
2022/08/12 01:26:57;;;;;;;5.32;2.05;;;17.60;99.90;;;;;;5007361;28;20046;-58
2022/08/12 01:29:27;;;;;;;2.55;2.00;;;17.60;99.90;;;;;;5007370;28;20108;-52
2022/08/12 01:31:56;;;;;;;2.13;1.52;;;17.50;99.90;;;;;;5006070;28;20030;-55
2022/08/12 01:34:32;;;;;;;1.92;1.45;;;17.50;99.90;;;;;;4997239;28;20030;-56
2022/08/12 01:37:00;;;;;;;1.75;1.65;;;17.50;99.90;;;;;;5002917;28;20435;-58
2022/08/12 01:39:48;;;;;;;3.65;1.77;;;17.40;99.90;;;;;;5002016;28;20111;-57
2022/08/12 01:42:19;;;;;;;1.83;1.60;;;17.50;99.90;;;;;;4998458;28;20109;-57
2022/08/12 01:44:47;;;;;;;1.85;1.58;;;17.40;99.90;;;;;;5006864;28;20021;-57
2022/08/12 01:47:24;;;;;;;2.00;1.70;;;17.30;99.90;;;;;;5002037;28;20132;-58
2022/08/12 01:50:04;;;;;;;2.05;1.85;;;17.30;99.90;;;;;;5004787;28;20041;-55
2022/08/12 01:52:36;;;;;;;2.42;1.70;;;17.40;99.90;;;;;;5001653;28;20077;-58
2022/08/12 01:55:06;;;;;;;2.15;1.90;;;17.30;99.90;;;;;;5004111;28;20018;-58
2022/08/12 01:57:43;;;;;;;3.55;1.80;;;17.30;99.90;;;;;;5014901;28;20075;-57
2022/08/12 02:00:12;;;;;;;2.03;1.80;;;17.20;99.90;;;;;;5008768;28;20120;-57
2022/08/12 02:03:00;;;;;;;2.47;1.77;;;17.20;99.90;;;;;;5017573;28;20107;-54
2022/08/12 02:11:34;;;;;;;2.22;2.03;;;17.00;99.90;;;;;;5009583;28;20044;-57
2022/08/12 02:14:37;;;;;;;2.15;1.90;;;16.90;99.90;;;;;;5012508;28;20029;-58
2022/08/12 02:17:25;;;;;;;3.90;1.70;;;16.80;99.90;;;;;;5006861;28;20040;-57
2022/08/12 02:20:17;;;;;;;2.17;1.58;;;16.80;99.90;;;;;;5011340;28;20053;-57
2022/08/12 02:22:43;;;;;;;2.42;1.77;;;16.70;99.90;;;;;;5013806;28;20085;-58
2022/08/12 02:25:11;;;;;;;2.40;1.60;;;16.70;99.90;;;;;;4998686;28;20084;-58
2022/08/12 02:27:48;;;;;;;1.75;1.65;;;16.60;99.90;;;;;;5009774;28;20481;-57
2022/08/12 02:30:18;;;;;;;1.83;1.73;;;16.60;99.90;;;;;;5032372;22;20509;-55
2022/08/12 02:32:46;;;;;;;2.63;1.98;;;16.50;99.90;;;;;;5000853;28;20499;-51
2022/08/12 02:35:16;;;;;;;1.92;1.83;;;16.50;99.90;;;;;;5007900;28;20050;-58
2022/08/12 02:37:43;;;;;;;2.47;1.70;;;16.50;99.90;;;;;;5003142;28;20108;-51
2022/08/12 02:40:11;;;;;;;1.60;1.50;;;16.40;99.90;;;;;;5001938;28;21333;-51
2022/08/12 02:42:46;;;;;;;2.50;1.58;;;16.40;99.90;;;;;;5004279;28;20137;-57
2022/08/12 02:45:15;;;;;;;5.07;2.10;;;16.40;99.90;;;;;;5002780;28;20026;-50
2022/08/12 02:47:41;;;;;;;3.30;1.80;;;16.40;99.90;;;;;;4995485;28;20503;-57
2022/08/12 02:50:09;;;;;;;2.17;1.50;;;16.30;99.90;;;;;;5001306;28;20216;-52
2022/08/12 02:52:36;;;;;;;1.70;1.60;;;16.30;99.90;;;;;;5002638;28;20463;-55
2022/08/12 02:55:26;;;;;;;2.05;1.75;;;16.30;99.90;;;;;;5004936;28;20027;-52
2022/08/12 02:57:53;;;;;;;2.13;1.90;;;16.30;99.90;;;;;;5006215;28;20531;-50
2022/08/12 03:00:18;;;;;;;2.00;1.80;;;16.30;99.90;;;;;;5001655;28;20022;-49
2022/08/12 03:02:45;;;;;;;3.33;1.88;;;16.20;99.90;;;;;;4998911;28;20112;-51
2022/08/12 03:05:14;;;;;;;2.22;2.00;;;16.20;99.90;;;;;;5007793;28;20033;-54
2022/08/12 03:07:48;;;;;;;2.20;2.00;;;16.10;99.90;;;;;;5002263;28;20492;-52
2022/08/12 03:10:17;;;;;;;2.22;2.00;;;16.10;99.90;;;;;;4988915;28;20599;-51
2022/08/12 03:12:44;;;;;;;2.13;1.95;;;16.00;99.90;;;;;;5007768;28;20026;-55
2022/08/12 03:15:15;;;;;;;2.05;1.80;;;16.00;99.90;;;;;;4998655;28;20057;-52
2022/08/12 03:18:05;;;;;;;2.70;2.15;;;16.00;99.90;;;;;;4999097;28;20079;-52
2022/08/12 03:20:36;;;;;;;2.47;2.22;;;16.00;99.90;;;;;;4992730;28;20026;-53
2022/08/12 03:23:05;;;;;;;3.45;1.90;;;16.00;99.90;;;;;;5001298;28;20085;-54
2022/08/12 03:25:33;;;;;;;2.72;2.08;;;16.00;99.90;;;;;;5009341;28;20064;-54
2022/08/12 03:27:59;;;;;;;3.80;2.20;;;15.90;99.90;;;;;;4999988;28;20034;-53
2022/08/12 03:30:30;;;;;;;2.72;2.10;;;15.90;99.90;;;;;;4998059;28;20034;-54
2022/08/12 03:32:57;;;;;;;1.95;1.85;;;15.90;99.90;;;;;;5002951;28;20061;-52
2022/08/12 03:35:26;;;;;;;2.13;1.92;;;15.90;99.90;;;;;;5009724;28;20018;-55
2022/08/12 03:38:04;;;;;;;2.53;2.17;;;15.90;99.90;;;;;;5002660;28;20022;-56
2022/08/12 04:00:23;;;;;;;4.55;2.22;;;15.70;99.90;;;;;;5007250;28;20029;-55
2022/08/12 04:03:00;;;;;;;2.30;2.08;;;15.70;99.90;;;;;;4996134;28;20121;-57
2022/08/12 04:05:26;;;;;;;2.45;2.25;;;15.70;99.90;;;;;;5008790;28;20033;-58
2022/08/12 04:07:52;;;;;;;2.28;1.90;;;15.70;99.90;;;;;;5001774;28;20032;-54
2022/08/12 04:10:18;;;;;;;3.17;2.33;;;15.70;99.90;;;;;;5005155;28;20036;-56
2022/08/12 04:15:39;;;;;;;2.28;2.10;;;15.60;99.90;;;;;;4996739;28;20072;-53
2022/08/12 04:18:05;;;;;;;2.92;1.98;;;15.60;99.90;;;;;;5000068;28;20835;-53
2022/08/12 04:20:31;;;;;;;2.25;2.00;;;15.60;99.90;;;;;;5005622;28;20022;-56
2022/08/12 04:22:57;;;;;;;2.90;2.15;;;15.60;99.90;;;;;;5003998;28;20018;-56
2022/08/12 04:25:24;;;;;;;2.60;2.30;;;15.60;99.90;;;;;;5002594;28;20080;-57
2022/08/12 04:27:50;;;;;;;2.40;2.20;;;15.60;99.90;;;;;;4994384;28;20030;-55
2022/08/12 04:30:15;;;;;;;5.30;2.33;;;15.60;99.90;;;;;;5006811;28;20080;-56
2022/08/12 04:32:42;;;;;;;2.72;2.50;;;15.50;99.90;;;;;;5000086;28;20022;-55
2022/08/12 04:35:08;;;;;;;3.25;1.95;;;15.50;99.90;;;;;;5004455;28;20033;-57
2022/08/12 04:37:34;;;;;;;4.07;2.30;;;15.50;99.90;;;;;;5003846;28;20030;-54
2022/08/12 04:40:01;;;;;;;2.83;2.50;;;15.50;99.90;;;;;;4998036;28;20382;-57
2022/08/12 04:42:27;;;;;;;3.60;2.38;;;15.50;99.90;;;;;;5001929;28;20481;-56
2022/08/12 04:44:53;;;;;;;4.60;2.20;;;15.50;99.90;;;;;;5003056;28;20032;-57
2022/08/12 04:47:20;;;;;;;2.75;2.20;;;15.50;99.90;;;;;;5003820;28;20064;-55
2022/08/12 04:49:46;;;;;;;3.50;2.00;;;15.50;99.90;;;;;;5004642;28;20101;-55
2022/08/12 04:52:13;;;;;;;2.85;2.00;;;15.60;99.90;;;;;;5003465;28;20014;-56
2022/08/12 04:54:39;;;;;;;2.25;2.05;;;15.50;99.90;;;;;;4996088;28;20029;-54
2022/08/12 04:57:08;;;;;;;8.43;2.65;;;15.50;99.90;;;;;;5005196;28;20481;-57
2022/08/12 04:59:34;;;;;;;4.15;2.33;;;15.50;99.90;;;;;;5001505;28;20117;-56
2022/08/12 05:02:00;;;;;;;2.75;2.08;;;15.60;99.90;;;;;;4999755;28;20546;-55
2022/08/12 05:04:26;;;;;;;2.67;2.40;;;15.60;99.90;;;;;;4998698;28;20101;-56
2022/08/12 05:06:51;;;;;;;3.25;1.83;;;15.60;99.90;;;;;;5004542;28;20026;-51
2022/08/12 05:09:17;;;;;;;2.50;2.25;;;15.70;99.90;;;;;;5000624;28;20058;-57
2022/08/12 05:11:46;;;;;;;3.00;2.00;;;15.70;99.90;;;;;;5004882;28;20483;-56
2022/08/12 05:14:12;;;;;;;3.15;2.40;;;15.80;99.90;;;;;;5000328;28;20105;-57
2022/08/12 05:16:38;;;;;;;5.13;2.80;;;15.80;99.90;;;;;;5001969;28;20034;-57
2022/08/12 05:19:05;;;;;;;2.67;2.15;;;15.80;99.90;;;;;;5004118;28;20038;-57
2022/08/12 05:21:30;;;;;;;2.80;2.35;;;15.90;99.90;;;;;;5001436;28;20032;-58
2022/08/12 05:23:56;;;;;;;2.22;2.05;;;15.90;99.90;;;;;;4997679;28;20400;-58
2022/08/12 05:26:22;;;;;;;5.05;2.20;;;16.00;99.90;;;;;;4996671;28;20010;-58
2022/08/12 05:28:48;;;;;;;4.70;2.25;;;16.00;99.90;;;;;;5002867;28;20022;-55
2022/08/12 05:31:16;;;;;;;3.60;2.42;;;16.10;99.90;;;;;;4989532;28;20033;-56
2022/08/12 05:33:44;;;;;;;3.78;2.22;;;16.10;99.90;;;;;;5000591;28;20044;-59
2022/08/12 05:36:12;;;;;;;4.32;2.20;;;16.20;99.90;;;;;;4995045;28;20017;-57
2022/08/12 05:38:57;;;;;;;4.72;2.50;;;16.20;99.90;;;;;;5001675;28;20026;-56
2022/08/12 05:41:33;;;;;;;3.28;2.40;;;16.30;99.90;;;;;;5000407;28;20113;-57
2022/08/12 05:44:02;;;;;;;2.67;1.98;;;16.30;99.90;;;;;;5004473;28;20065;-55
2022/08/12 05:46:29;;;;;;;2.95;2.17;;;16.40;99.90;;;;;;5010676;28;20021;-56
2022/08/12 05:48:55;;;;;;;2.35;2.10;;;16.40;99.90;;;;;;5004015;28;20019;-56
2022/08/12 05:51:23;;;;;;;2.72;2.45;;;16.50;99.90;;;;;;5002424;28;20026;-56
2022/08/12 05:53:53;;;;;;;2.75;2.45;;;16.60;99.90;;;;;;5000531;28;20052;-56
2022/08/12 05:56:24;;;;;;;2.10;1.90;;;16.60;99.90;;;;;;5008842;28;20484;-55
2022/08/12 05:58:51;;;;;;;4.15;2.28;;;16.70;99.90;;;;;;4997316;28;20038;-57
2022/08/12 06:01:18;;;;;;;2.42;1.65;;;16.80;99.90;;;;;;4998345;28;20085;-57
2022/08/12 06:03:44;;;;;;;4.55;3.13;;;16.90;99.90;;;;;;4997790;28;20031;-54
2022/08/12 06:06:10;;;;;;;2.78;1.75;;;17.00;99.90;;;;;;5009219;28;20600;-56
2022/08/12 06:08:37;;;;;;;4.65;2.30;;;17.00;99.90;;;;;;5004209;28;20053;-55
2022/08/12 06:11:04;;;;;;;5.40;2.28;;;17.10;99.90;;;;;;5005406;28;20025;-57
2022/08/12 06:13:33;;;;;;;3.45;2.20;;;17.20;99.90;;;;;;5011057;28;20021;-56
2022/08/12 06:15:59;;;;;;;3.75;2.17;;;17.30;99.90;;;;;;5002552;28;20030;-54
2022/08/12 06:18:25;;;;;;;2.13;1.92;;;17.40;99.90;;;;;;5010312;28;20052;-56
2022/08/12 06:20:57;;;;;;;2.03;1.83;;;17.50;99.90;;;;;;5011181;28;20034;-58
2022/08/12 06:23:27;;;;;;;1.95;1.83;;;17.60;99.90;;;;;;5007709;28;20022;-54
2022/08/12 06:25:54;;;;;;;1.92;1.80;;;17.70;99.90;;;;;;5010999;28;20014;-57
2022/08/12 06:28:21;;;;;;;3.20;2.05;;;17.80;99.90;;;;;;5004586;28;20559;-55
2022/08/12 06:30:47;;;;;;;2.70;2.47;;;17.90;99.90;;;;;;5009876;28;20026;-57
2022/08/12 06:33:13;;;;;;;2.45;2.17;;;18.00;99.90;;;;;;5003141;28;20080;-55
2022/08/12 06:35:40;;;;;;;3.75;1.88;;;18.20;99.90;;;;;;5011439;28;20076;-55
2022/08/12 06:38:31;;;;;;;2.42;2.22;;;18.30;99.90;;;;;;5009150;28;20049;-57
2022/08/12 06:43:44;;;;;;;5.00;2.47;;;18.60;99.90;;;;;;5007143;28;20040;-58
2022/08/12 06:46:12;;;;;;;6.20;2.30;;;18.80;99.90;;;;;;5009758;28;20033;-53
2022/08/12 06:48:40;;;;;;;2.25;1.90;;;18.90;99.90;;;;;;5005997;28;20370;-59
2022/08/12 06:51:07;;;;;;;2.90;1.88;;;19.00;99.90;;;;;;5007544;28;20109;-58
2022/08/12 06:53:33;;;;;;;2.50;1.95;;;19.20;99.90;;;;;;4997212;28;20033;-56
2022/08/12 06:55:59;;;;;;;2.10;1.90;;;19.30;99.90;;;;;;5000653;28;20112;-57
2022/08/12 06:58:27;;;;;;;2.20;2.00;;;19.40;99.90;;;;;;5003536;28;20453;-57
2022/08/12 07:00:54;;;;;;;3.95;2.20;;;19.60;99.90;;;;;;4998562;28;20030;-60
2022/08/12 07:03:26;;;;;;;3.30;1.70;;;19.70;99.90;;;;;;5004589;28;20656;-56
2022/08/12 07:05:53;;;;;;;3.40;2.20;;;19.90;99.90;;;;;;5002529;28;20033;-56
2022/08/12 07:08:18;;;;;;;2.25;2.05;;;20.10;99.90;;;;;;5009766;28;20045;-58
2022/08/12 07:10:52;;;;;;;3.33;2.03;;;20.20;99.90;;;;;;5005128;28;20026;-57
2022/08/12 07:13:19;;;;;;;4.30;2.10;;;20.40;99.90;;;;;;5005948;28;20109;-54
2022/08/12 07:15:45;;;;;;;3.05;2.33;;;20.50;99.90;;;;;;4999677;28;20791;-53
2022/08/12 07:18:16;;;;;;;2.28;1.90;;;20.60;99.90;;;;;;5009783;28;20130;-52
2022/08/12 07:20:44;;;;;;;2.55;1.65;;;20.80;99.90;;;;;;5007796;28;20034;-51
2022/08/12 07:23:10;;;;;;;3.88;2.40;;;21.00;99.90;;;;;;5004278;28;20036;-55
2022/08/12 07:25:38;;;;;;;6.63;2.10;;;21.20;99.90;;;;;;5006971;28;20026;-56
2022/08/12 07:28:09;;;;;;;3.05;1.95;;;21.30;99.90;;;;;;5006118;28;20026;-58
2022/08/12 07:30:38;;;;;;;3.05;2.22;;;21.50;99.90;;;;;;4995355;28;20034;-55
2022/08/12 07:33:07;;;;;;;2.30;1.60;;;21.70;99.90;;;;;;4996868;28;20702;-53
2022/08/12 07:35:44;;;;;;;6.32;2.15;;;21.90;99.90;;;;;;4996543;28;20489;-53
2022/08/12 07:38:30;;;;;;;2.95;2.53;;;22.10;99.90;;;;;;5006153;28;20037;-57
2022/08/12 07:40:55;;;;;;;;;;;22.30;99.90;;;;;;5004612;28;20046;-57
2022/08/12 07:43:21;;;;;;;2.30;1.90;;;22.50;99.90;;;;;;5005205;28;19956;-55
2022/08/12 07:45:48;;;;;;;2.83;1.98;;;22.70;99.90;;;;;;5008408;28;20022;-50
2022/08/12 07:48:14;;;;;;;2.83;1.90;;;22.80;99.90;;;;;;4992182;28;20110;-55
2022/08/12 07:50:40;;;;;;;3.20;2.20;;;23.00;99.90;;;;;;5006011;28;20155;-57
2022/08/12 07:53:08;;;;;;;4.15;2.28;;;23.10;99.90;;;;;;5008193;28;20480;-53
2022/08/12 07:55:35;;;;;;;3.72;2.17;;;23.30;99.90;;;;;;5006303;28;20088;-55
2022/08/12 07:58:01;;;;;;;6.35;2.08;;;23.40;99.90;;;;;;5008920;28;20029;-58
2022/08/12 08:00:30;;;;;;;2.28;2.08;;;23.50;99.20;;;;;;5004930;28;20420;-56
2022/08/12 08:02:57;;;;;;;3.63;1.98;;;23.50;99.30;;;;;;5006249;28;20018;-54
2022/08/12 08:05:26;;;;;;;2.35;1.88;;;23.70;98.60;;;;;;5009679;28;20053;-55
2022/08/12 08:07:52;;;;;;;9.32;2.72;;;23.90;98.60;;;;;;5008574;28;20037;-57
2022/08/12 08:10:19;;;;;;;2.58;2.17;;;24.10;97.70;;;;;;5005587;28;20030;-53
2022/08/12 08:12:55;;;;;;;6.20;2.65;;;24.20;97.40;;;;;;5007073;28;20552;-55
2022/08/12 08:15:26;;;;;;;2.85;2.20;;;24.50;97.70;;;;;;4994789;28;20053;-58
2022/08/12 08:17:59;;;;;;;3.97;1.67;;;24.70;96.30;;;;;;5006466;28;20481;-52
2022/08/12 08:20:29;;;;;;;3.10;1.95;;;25.00;96.50;;;;;;5009467;28;20018;-57
2022/08/12 08:22:56;;;;;;;2.05;1.88;;;25.20;96.20;;;;;;4992498;28;20018;-57
2022/08/12 08:25:29;;;;;;;144.90;11.38;;;25.50;95.90;;;;;;4991017;28;20026;-57
2022/08/12 08:27:59;;;;;;;3.53;2.50;;;25.80;95.80;;;;;;4998632;28;20117;-55
2022/08/12 08:30:27;;;;;;;2.00;1.77;;;25.90;94.30;;;;;;5009147;28;20132;-54
2022/08/12 08:32:53;;;;;;;4.22;1.92;;;26.10;94.00;;;;;;5632545;22;20072;-59
2022/08/12 08:35:21;;;;;;;5.30;1.90;;;26.20;93.30;;;;;;5036670;28;20255;-59
2022/08/12 08:37:46;;;;;;;3.42;2.00;;;26.20;92.90;;;;;;5032859;28;20490;-57
2022/08/12 08:42:59;;;;;;;2.90;1.63;;;26.60;92.40;;;;;;5044498;28;20473;-57
2022/08/12 08:45:27;;;;;;;2.67;2.28;;;26.80;91.90;;;;;;5044627;28;20044;-59
2022/08/12 08:47:53;;;;;;;2.03;1.77;;;27.00;91.00;;;;;;5050502;28;20537;-58
2022/08/12 08:50:19;;;;;;;2.25;1.80;;;27.10;91.20;;;;;;5046987;28;20034;-58
2022/08/12 08:52:45;;;;;;;4.22;2.05;;;27.20;91.00;;;;;;5056271;28;20096;-58
2022/08/12 08:55:12;;;;;;;1.75;1.65;;;27.40;90.60;;;;;;5039643;28;20553;-57
2022/08/12 08:57:49;;;;;;;4.47;1.88;;;27.40;90.80;;;;;;5057827;28;20025;-58
2022/08/12 09:00:17;;;;;;;2.10;1.75;;;27.60;91.60;;;;;;5039801;28;20075;-60
2022/08/12 09:02:44;;;;;;;3.85;1.80;;;27.90;90.90;;;;;;5052001;28;20048;-60
2022/08/12 09:05:10;;;;;;;4.25;2.20;;;28.10;90.50;;;;;;5044078;28;20078;-59
2022/08/12 09:07:47;;;;;;;3.22;1.90;;;28.20;90.10;;;;;;5047801;28;20013;-58
2022/08/12 09:10:18;;;;;;;6.53;2.10;;;28.30;89.00;;;;;;5063877;28;20030;-57
2022/08/12 09:15:31;;;;;;;2.63;2.00;;;28.40;85.30;;;;;;5050003;28;20086;-58
2022/08/12 09:17:58;;;;;;;3.03;1.83;;;28.30;86.80;;;;;;5053258;28;20484;-58
2022/08/12 09:20:26;;;;;;;3.55;1.42;;;28.30;87.50;;;;;;5046649;28;20372;-56
2022/08/12 09:22:54;;;;;;;3.60;2.05;;;28.50;86.90;;;;;;5044844;28;20043;-58
2022/08/12 09:25:26;;;;;;;2.35;1.88;;;28.60;85.50;;;;;;5059667;28;20017;-56
2022/08/12 09:27:53;;;;;;;3.00;2.00;;;28.60;83.50;;;;;;5053808;28;20387;-59
2022/08/12 09:30:20;;;;;;;2.55;1.58;;;28.60;83.70;;;;;;5059145;28;20500;-57
2022/08/12 09:32:51;;;;;;;2.47;2.00;;;28.60;82.10;;;;;;5053750;28;20386;-57
2022/08/12 09:35:24;;;;;;;2.10;1.90;;;28.60;82.60;;;;;;5058456;28;20021;-54
2022/08/12 09:37:54;;;;;;;2.35;2.15;;;28.40;81.80;;;;;;5055427;28;20429;-56
2022/08/12 09:40:22;;;;;;;3.13;1.90;;;28.40;82.10;;;;;;5057046;28;20020;-57
2022/08/12 09:45:33;;;;;;;1.70;1.50;;;28.50;82.20;;;;;;5054850;28;20542;-56
2022/08/12 09:48:05;;;;;;;5.20;1.50;;;28.70;81.70;;;;;;5047840;28;20033;-59
2022/08/12 09:50:32;;;;;;;8.20;2.10;;;28.70;77.70;;;;;;5049330;28;20016;-58
2022/08/12 09:53:09;;;;;;;2.20;1.80;;;28.70;78.90;;;;;;5060691;28;20040;-57
2022/08/12 09:55:38;;;;;;;2.25;2.08;;;28.70;78.50;;;;;;5051774;28;20112;-57
2022/08/12 09:58:04;;;;;;;7.00;1.92;;;28.60;75.90;;;;;;5050445;28;20069;-58
2022/08/12 10:00:33;;;;;;;4.68;1.45;;;28.70;77.40;;;;;;5049505;28;20079;-59
2022/08/12 10:03:09;;;;;;;3.20;1.63;;;28.70;76.40;;;;;;5055220;28;20111;-59
2022/08/12 10:05:41;;;;;;;1.75;1.60;;;28.60;75.00;;;;;;5048874;28;20025;-59
2022/08/12 10:08:10;;;;;;;1.70;1.60;;;28.40;75.90;;;;;;5050465;28;20029;-59
2022/08/12 10:16:16;;;;;;;3.70;1.60;;;28.30;76.70;;;;;;5049555;28;20071;-57
2022/08/12 10:18:43;;;;;;;2.22;1.70;;;28.30;76.00;;;;;;5053703;28;20044;-58
2022/08/12 10:21:11;;;;;;;2.55;1.80;;;28.30;75.40;;;;;;5048879;28;20109;-55
2022/08/12 10:23:40;;;;;;;1.60;1.50;;;28.30;75.80;;;;;;5053915;28;20060;-58
2022/08/12 10:31:34;;;;;;;3.67;1.60;;;28.30;76.00;;;;;;5045052;28;20116;-56
2022/08/12 10:33:59;;;;;;;1.63;1.52;;;28.40;74.80;;;;;;5055820;28;20119;-54
2022/08/12 10:36:25;;;;;;;5.10;1.50;;;28.40;72.20;;;;;;5050135;28;20024;-55
2022/08/12 10:38:51;;;;;;;1.80;1.60;;;28.30;71.50;;;;;;5057418;28;20100;-56
2022/08/12 10:44:04;;;;;;;4.90;1.55;;;28.40;73.20;;;;;;5048883;28;20083;-60
2022/08/12 10:46:29;;;;;;;1.55;1.45;;;28.50;73.10;;;;;;5043571;28;20081;-57
2022/08/12 10:48:55;;;;;;;4.25;1.67;;;28.50;73.20;;;;;;5047017;28;20391;-56
2022/08/12 10:51:20;;;;;;;2.08;1.60;;;28.50;73.70;;;;;;5053418;28;20057;-55
2022/08/12 10:53:46;;;;;;;2.03;1.60;;;28.50;73.90;;;;;;5060398;28;20100;-58
2022/08/12 10:56:14;;;;;;;2.10;1.63;;;28.50;74.40;;;;;;5053864;28;20414;-59
2022/08/12 10:58:40;;;;;;;1.63;1.48;;;28.50;74.70;;;;;;5049102;28;20486;-61
2022/08/12 11:01:09;;;;;;;2.55;1.63;;;28.60;70.70;;;;;;5048067;28;20021;-59
2022/08/12 11:03:36;;;;;;;3.22;1.50;;;28.60;69.60;;;;;;5049578;28;20027;-60
2022/08/12 11:06:06;;;;;;;3.33;1.40;;;28.60;69.80;;;;;;5052176;28;20503;-59
2022/08/12 11:08:36;;;;;;;2.10;1.65;;;28.60;69.20;;;;;;5045738;28;20017;-58
2022/08/12 11:11:04;;;;;;;1.75;1.30;;;28.60;69.30;;;;;;5042898;28;20104;-53
2022/08/12 11:13:30;;;;;;;3.30;1.50;;;28.50;71.00;;;;;;5041720;28;20025;-57
2022/08/12 11:15:56;;;;;;;3.88;1.70;;;28.60;69.40;;;;;;5043613;28;20428;-57
2022/08/12 11:18:22;;;;;;;3.38;1.80;;;28.60;68.00;;;;;;5058172;28;20078;-62
2022/08/12 11:20:48;;;;;;;1.63;1.52;;;28.70;68.70;;;;;;5047386;28;20030;-58
2022/08/12 11:23:14;;;;;;;2.53;1.70;;;28.70;69.00;;;;;;5052087;28;20032;-55
2022/08/12 11:25:46;;;;;;;3.70;1.58;;;28.70;68.90;;;;;;5047462;28;20018;-58
2022/08/12 11:28:13;;;;;;;7.25;2.30;;;28.60;68.10;;;;;;5052099;28;20029;-55
2022/08/12 11:30:38;;;;;;;6.15;2.05;;;28.60;67.70;;;;;;5039628;28;20025;-56
2022/08/12 11:33:04;;;;;;;1.38;1.27;;;28.50;67.10;;;;;;5047164;28;20028;-57
2022/08/12 11:35:30;;;;;;;3.20;1.50;;;28.50;67.40;;;;;;5055224;28;20104;-55
2022/08/12 11:37:58;;;;;;;4.15;1.67;;;28.60;67.50;;;;;;5044969;28;20017;-58
2022/08/12 11:40:24;;;;;;;2.88;1.80;;;28.60;66.60;;;;;;5043039;28;20095;-57
2022/08/12 11:42:50;;;;;;;3.30;1.80;;;28.70;66.50;;;;;;5053270;28;20418;-57
2022/08/12 11:45:15;;;;;;;5.65;1.40;;;28.80;63.90;;;;;;5047132;28;20350;-57
2022/08/12 11:47:41;;;;;;;4.85;1.80;;;28.80;65.30;;;;;;5054215;28;20037;-58
2022/08/12 11:50:07;;;;;;;1.83;1.30;;;28.80;67.90;;;;;;5048766;28;20029;-60
2022/08/12 11:52:32;;;;;;;3.30;1.65;;;28.90;66.90;;;;;;5046664;28;20036;-56
2022/08/12 11:54:58;;;;;;;1.67;1.45;;;29.00;67.00;;;;;;5046746;28;20064;-57
2022/08/12 11:57:23;;;;;;;2.13;1.48;;;29.00;65.50;;;;;;5049662;28;20028;-58
2022/08/12 11:59:49;;;;;;;1.85;1.50;;;29.00;65.70;;;;;;5049330;28;20040;-57
2022/08/12 12:02:15;;;;;;;2.50;1.83;;;29.00;66.20;;;;;;5046482;28;20025;-55
2022/08/12 12:04:40;;;;;;;3.83;1.85;;;29.00;65.30;;;;;;5057379;28;20024;-57
2022/08/12 12:07:06;;;;;;;7.57;2.67;;;29.00;64.30;;;;;;5047755;28;20116;-58
2022/08/12 12:09:31;;;;;;;3.33;1.52;;;29.00;64.10;;;;;;5050085;28;20013;-57
2022/08/12 12:11:59;;;;;;;1.67;1.58;;;29.00;64.10;;;;;;5055303;28;20020;-57
2022/08/12 12:14:26;;;;;;;3.20;2.00;;;29.10;65.60;;;;;;5049114;28;20029;-57
2022/08/12 12:16:51;;;;;;;2.15;1.67;;;29.10;64.00;;;;;;5043200;28;20109;-58
2022/08/12 12:19:17;;;;;;;3.33;2.03;;;29.00;64.00;;;;;;5048947;28;20179;-59
2022/08/12 12:21:42;;;;;;;2.25;1.48;;;29.00;64.20;;;;;;5053723;28;20087;-58
2022/08/12 12:24:08;;;;;;;2.75;1.83;;;29.10;66.10;;;;;;5055985;28;20110;-59
2022/08/12 12:26:34;;;;;;;4.88;2.22;;;29.20;64.20;;;;;;5047491;28;20460;-59
2022/08/12 12:28:59;;;;;;;2.03;1.50;;;29.30;63.50;;;;;;5052192;28;20044;-58
2022/08/12 12:31:25;;;;;;;1.73;1.52;;;29.40;63.50;;;;;;5046384;28;20036;-56
2022/08/12 12:33:50;;;;;;;2.85;1.52;;;29.60;63.70;;;;;;5054824;28;20363;-59
2022/08/12 12:36:16;;;;;;;1.60;1.50;;;29.60;64.50;;;;;;5056389;28;20024;-55
2022/08/12 12:38:41;;;;;;;1.75;1.65;;;29.70;64.20;;;;;;5053467;28;20058;-56
2022/08/12 12:41:07;;;;;;;3.35;1.65;;;29.80;64.10;;;;;;5048971;28;20033;-57
2022/08/12 12:43:32;;;;;;;2.85;2.05;;;29.90;62.70;;;;;;5038310;28;20028;-58
2022/08/12 12:45:58;;;;;;;4.63;1.60;;;29.90;62.80;;;;;;5056909;28;20507;-56
2022/08/12 12:48:24;;;;;;;10.20;2.22;;;30.00;63.40;;;;;;5041585;28;20369;-56
2022/08/12 12:51:14;;;;;;;3.40;1.73;;;30.00;61.70;;;;;;5045677;28;20052;-59
2022/08/12 12:53:42;;;;;;;1.65;1.52;;;30.10;61.50;;;;;;5056286;28;20118;-59
2022/08/12 12:56:14;;;;;;;2.88;1.52;;;30.10;62.70;;;;;;5050272;28;20032;-58
2022/08/12 12:58:41;;;;;;;2.65;1.63;;;30.20;61.00;;;;;;5047411;28;20025;-55
2022/08/12 13:01:07;;;;;;;2.17;1.58;;;30.20;61.50;;;;;;5048302;28;20024;-55
2022/08/12 13:03:34;;;;;;;1.88;1.50;;;30.30;62.40;;;;;;5052333;28;20060;-59
2022/08/12 13:06:01;;;;;;;1.27;1.17;;;30.40;61.50;;;;;;5050897;28;20021;-59
2022/08/12 13:08:29;;;;;;;4.43;1.60;;;30.50;62.10;;;;;;5056462;28;20124;-56
2022/08/12 13:11:02;;;;;;;2.00;1.80;;;30.60;60.70;;;;;;5050757;28;20029;-55
2022/08/12 13:13:30;;;;;;;1.67;1.50;;;30.60;61.50;;;;;;5041338;28;20028;-55
2022/08/12 13:15:58;;;;;;;1.45;1.35;;;30.80;61.50;;;;;;5049851;28;20126;-58
2022/08/12 13:18:24;;;;;;;2.58;1.70;;;30.90;59.90;;;;;;5058573;28;20023;-58
2022/08/12 13:20:51;;;;;;;2.17;1.73;;;31.00;59.50;;;;;;5049481;28;20033;-57
2022/08/12 13:23:16;;;;;;;4.93;1.67;;;31.20;59.70;;;;;;5050896;28;20025;-57
2022/08/12 13:25:42;;;;;;;1.65;1.55;;;31.20;59.80;;;;;;5050257;28;20021;-58
2022/08/12 13:28:20;;;;;;;2.65;1.55;;;31.30;59.10;;;;;;5051000;28;20559;-58
2022/08/12 13:30:45;;;;;;;3.03;1.80;;;31.40;58.20;;;;;;5048362;28;20471;-59
2022/08/12 13:33:13;;;;;;;1.77;1.67;;;31.50;58.90;;;;;;5042730;28;20026;-57
2022/08/12 13:35:39;;;;;;;4.70;1.70;;;31.60;58.30;;;;;;5055816;28;20219;-58
2022/08/12 13:38:09;;;;;;;2.22;1.85;;;31.60;58.90;;;;;;5042222;28;20021;-57
2022/08/12 13:40:38;;;;;;;2.15;1.90;;;31.70;59.00;;;;;;5051130;28;20032;-58
2022/08/12 13:43:05;;;;;;;3.80;1.80;;;31.80;57.40;;;;;;5047649;28;20032;-57
2022/08/12 13:45:32;;;;;;;5.03;1.73;;;31.90;57.40;;;;;;5047863;28;20071;-56
2022/08/12 13:48:00;;;;;;;3.25;1.90;;;31.90;57.30;;;;;;5049790;28;20066;-56
2022/08/12 13:50:35;;;;;;;2.22;1.60;;;31.90;57.10;;;;;;5050511;28;20411;-57
2022/08/12 13:53:08;;;;;;;2.35;1.67;;;31.80;56.30;;;;;;5046912;28;20028;-59
2022/08/12 13:55:38;;;;;;;1.70;1.50;;;31.80;56.80;;;;;;5044367;28;20075;-59
2022/08/12 13:58:05;;;;;;;2.17;1.52;;;31.70;57.10;;;;;;5047243;28;20032;-58
2022/08/12 14:00:36;;;;;;;1.60;1.50;;;31.80;57.10;;;;;;5050438;28;20462;-59
2022/08/12 14:03:02;;;;;;;1.70;1.58;;;32.00;57.30;;;;;;5048627;28;20037;-57
2022/08/12 14:05:29;;;;;;;6.85;1.77;;;32.00;56.00;;;;;;5056080;28;20021;-58
2022/08/12 14:07:54;;;;;;;1.50;1.40;;;32.10;55.40;;;;;;5049365;28;20029;-58
2022/08/12 14:10:36;;;;;;;3.25;1.52;;;32.00;55.10;;;;;;5044320;28;20037;-58
2022/08/12 14:13:07;;;;;;;3.08;1.70;;;31.90;56.70;;;;;;5035544;28;20074;-58
2022/08/12 14:15:34;;;;;;;1.88;1.63;;;31.90;55.50;;;;;;5044072;28;20021;-58
2022/08/12 14:18:15;;;;;;;3.05;1.50;;;32.00;56.80;;;;;;5052926;28;20025;-58
2022/08/12 14:20:42;;;;;;;1.60;1.50;;;32.10;55.70;;;;;;5054869;28;20112;-56
2022/08/12 14:23:09;;;;;;;2.05;1.52;;;32.10;56.40;;;;;;5040588;28;20026;-58
2022/08/12 14:25:35;;;;;;;1.77;1.52;;;32.20;56.50;;;;;;5050267;28;20067;-58
2022/08/12 14:28:10;;;;;;;1.92;1.73;;;32.20;55.90;;;;;;5051386;28;20020;-57
2022/08/12 14:30:44;;;;;;;3.55;1.65;;;32.30;55.80;;;;;;5045992;28;20451;-58
2022/08/12 14:33:14;;;;;;;1.58;1.40;;;32.30;55.00;;;;;;5053533;22;20052;-58
2022/08/12 14:35:41;;;;;;;2.25;1.70;;;32.30;55.70;;;;;;5043339;28;20017;-53
2022/08/12 14:38:19;;;;;;;1.60;1.50;;;32.30;55.30;;;;;;5034566;28;20025;-52
2022/08/12 14:40:46;;;;;;;1.58;1.33;;;32.30;55.30;;;;;;5043072;28;20032;-55
2022/08/12 14:43:13;;;;;;;1.50;1.40;;;32.20;55.30;;;;;;5042089;28;20044;-56